Time;durP1;ratioP1;P1;durP2;ratioP2;P2;SDS_P1;SDS_P2;PMS_P1;PMS_P2;Temp;Humidity;BMP_temperature;BMP_pressure;BME280_temperature;BME280_humidity;BME280_pressure;Samples;Min_cycle;Max_cycle;Signal;HPM_P1;HPM_P2
2022/02/21 00:01:42;;;;;;;;;;;;;;;;;;4957073;28;19933;-81
2022/02/21 00:04:09;;;;;;;;;;;;;;;;;;4956719;28;20429;-81
2022/02/21 00:06:36;;;;;;;;;;;;;;;;;;4955929;28;19934;-81
2022/02/21 00:09:03;;;;;;;;;;;;;;;;;;4959933;28;19927;-80
2022/02/21 00:11:30;;;;;;;;;;;;;;;;;;4956170;28;20021;-81
2022/02/21 00:13:57;;;;;;;;;;;;;;;;;;4956884;28;19973;-81
2022/02/21 00:16:24;;;;;;;;;;;;;;;;;;4958289;28;20486;-81
2022/02/21 00:18:51;;;;;;;;;;;;;;;;;;4960661;29;19954;-81
2022/02/21 00:21:18;;;;;;;;;;;;;;;;;;4954505;28;19991;-80
2022/02/21 00:23:45;;;;;;;;;;;;;;;;;;4959077;28;19969;-80
2022/02/21 00:26:14;;;;;;;;;;;;;;;;;;4959491;28;20033;-81
2022/02/21 00:28:41;;;;;;;;;;;;;;;;;;4960031;28;19926;-80
2022/02/21 00:31:08;;;;;;;;;;;;;;;;;;4960507;28;19973;-81
2022/02/21 00:33:35;;;;;;;;;;;;;;;;;;4956377;28;20013;-81
2022/02/21 00:36:02;;;;;;;;;;;;;;;;;;4957465;28;19926;-81
2022/02/21 00:38:29;;;;;;;;;;;;;;;;;;4960727;28;19933;-81
2022/02/21 00:40:56;;;;;;;;;;;;;;;;;;4959938;28;19930;-80
2022/02/21 00:43:23;;;;;;;;;;;;;;;;;;4956036;28;19926;-80
2022/02/21 00:45:51;;;;;;;;;;;;;;;;;;4956663;28;20375;-80
2022/02/21 00:48:18;;;;;;;;;;;;;;;;;;4952775;28;19957;-81
2022/02/21 00:50:45;;;;;;;;;;;;;;;;;;4959543;28;19981;-80
2022/02/21 00:53:12;;;;;;;;;;;;;;;;;;4959323;28;19930;-81
2022/02/21 00:55:39;;;;;;;;;;;;;;;;;;4958134;28;20314;-81
2022/02/21 00:58:06;;;;;;;;;;;;;;;;;;4952052;28;20354;-79
2022/02/21 01:00:33;;;;;;;;;;;;;;;;;;4959361;28;20312;-80
2022/02/21 01:03:00;;;;;;;;;;;;;;;;;;4956826;28;19937;-80
2022/02/21 01:05:27;;;;;;;;;;;;;;;;;;4955930;28;20001;-80
2022/02/21 01:07:54;;;;;;;;;;;;;;;;;;4954976;28;19989;-80
2022/02/21 01:10:21;;;;;;;;;;;;;;;;;;4955483;28;19927;-81
2022/02/21 01:12:48;;;;;;;;;;;;;;;;;;4957909;28;20310;-80
2022/02/21 01:15:16;;;;;;;;;;;;;;;;;;4960267;28;19958;-80
2022/02/21 01:17:43;;;;;;;;;;;;;;;;;;4961275;28;19926;-79
2022/02/21 01:20:10;;;;;;;;;;;;;;;;;;4955840;28;19970;-81
2022/02/21 01:22:37;;;;;;;;;;;;;;;;;;4955628;28;19927;-81
2022/02/21 01:25:04;;;;;;;;;;;;;;;;;;4955546;28;20382;-80
2022/02/21 01:27:31;;;;;;;;;;;;;;;;;;4956798;28;19926;-81
2022/02/21 01:29:58;;;;;;;;;;;;;;;;;;4954541;28;19930;-80
2022/02/21 01:32:26;;;;;;;;;;;;;;;;;;4956741;28;20394;-81
2022/02/21 01:34:53;;;;;;;;;;;;;;;;;;4955117;28;19934;-81
2022/02/21 01:37:20;;;;;;;;;;;;;;;;;;4955373;28;19961;-81
2022/02/21 01:39:47;;;;;;;;;;;;;;;;;;4958049;28;19927;-81
2022/02/21 01:42:15;;;;;;;;;;;;;;;;;;4956246;28;19950;-79
2022/02/21 01:44:42;;;;;;;;;;;;;;;;;;4955922;28;19937;-80
2022/02/21 01:47:09;;;;;;;;;;;;;;;;;;4955661;28;19969;-80
2022/02/21 01:49:36;;;;;;;;;;;;;;;;;;4954989;28;20441;-80
2022/02/21 01:52:04;;;;;;;;;;;;;;;;;;4955755;28;19941;-80
2022/02/21 01:54:31;;;;;;;;;;;;;;;;;;4955771;28;19933;-80
2022/02/21 01:56:58;;;;;;;;;;;;;;;;;;4955770;28;19993;-80
2022/02/21 01:59:25;;;;;;;;;;;;;;;;;;4951901;28;19926;-80
2022/02/21 02:01:52;;;;;;;;;;;;;;;;;;4955917;28;19931;-80
2022/02/21 02:04:19;;;;;;;;;;;;;;;;;;4961325;28;19926;-80
2022/02/21 02:06:46;;;;;;;;;;;;;;;;;;4956950;28;19942;-83
2022/02/21 02:09:13;;;;;;;;;;;;;;;;;;4950054;28;20014;-79
2022/02/21 02:11:40;;;;;;;;;;;;;;;;;;4949869;28;19970;-80
2022/02/21 02:14:07;;;;;;;;;;;;;;;;;;4951594;28;19974;-80
2022/02/21 02:16:34;;;;;;;;;;;;;;;;;;4953449;28;19926;-80
2022/02/21 02:19:01;;;;;;;;;;;;;;;;;;4954134;28;20355;-80
2022/02/21 02:21:28;;;;;;;;;;;;;;;;;;4951120;28;19926;-79
2022/02/21 02:23:55;;;;;;;;;;;;;;;;;;4954659;28;19950;-80
2022/02/21 02:26:22;;;;;;;;;;;;;;;;;;4954498;28;19937;-78
2022/02/21 02:28:49;;;;;;;;;;;;;;;;;;4957040;28;20002;-80
2022/02/21 02:31:16;;;;;;;;;;;;;;;;;;4952241;28;19989;-81
2022/02/21 02:33:43;;;;;;;;;;;;;;;;;;4956571;28;19973;-81
2022/02/21 02:36:10;;;;;;;;;;;;;;;;;;4953939;28;19927;-81
2022/02/21 02:38:37;;;;;;;;;;;;;;;;;;4957806;28;19972;-81
2022/02/21 02:41:04;;;;;;;;;;;;;;;;;;4954776;28;20013;-81
2022/02/21 02:43:31;;;;;;;;;;;;;;;;;;4948494;28;19961;-80
2022/02/21 02:45:58;;;;;;;;;;;;;;;;;;4959227;28;19927;-79
2022/02/21 02:48:26;;;;;;;;;;;;;;;;;;4958807;28;19934;-81
2022/02/21 02:50:53;;;;;;;;;;;;;;;;;;4960320;28;19930;-80
2022/02/21 02:53:20;;;;;;;;;;;;;;;;;;4951222;28;19934;-81
2022/02/21 02:55:47;;;;;;;;;;;;;;;;;;4962396;28;19950;-81
2022/02/21 02:58:14;;;;;;;;;;;;;;;;;;4961258;28;19962;-81
2022/02/21 03:00:41;;;;;;;;;;;;;;;;;;4956548;28;19926;-81
2022/02/21 03:03:08;;;;;;;;;;;;;;;;;;4956924;28;20401;-81
2022/02/21 03:05:35;;;;;;;;;;;;;;;;;;4955112;28;20283;-82
2022/02/21 03:08:02;;;;;;;;;;;;;;;;;;4953699;28;20017;-81
2022/02/21 03:10:29;;;;;;;;;;;;;;;;;;4956506;28;19975;-81
2022/02/21 03:12:56;;;;;;;;;;;;;;;;;;4954723;28;19931;-80
2022/02/21 03:15:23;;;;;;;;;;;;;;;;;;4951484;28;19926;-81
2022/02/21 03:17:51;;;;;;;;;;;;;;;;;;4948967;28;20473;-80
2022/02/21 03:20:18;;;;;;;;;;;;;;;;;;4956332;28;19926;-80
2022/02/21 03:22:45;;;;;;;;;;;;;;;;;;4954656;28;19986;-80
2022/02/21 03:25:13;;;;;;;;;;;;;;;;;;4952061;28;20038;-80
2022/02/21 03:27:41;;;;;;;;;;;;;;;;;;4954785;28;20017;-80
2022/02/21 03:30:08;;;;;;;;;;;;;;;;;;4956082;28;19997;-80
2022/02/21 03:32:37;;;;;;;;;;;;;;;;;;4954314;28;19927;-80
2022/02/21 03:35:04;;;;;;;;;;;;;;;;;;4955715;28;20669;-81
2022/02/21 03:37:31;;;;;;;;;;;;;;;;;;4955675;28;19931;-81
2022/02/21 03:39:58;;;;;;;;;;;;;;;;;;4955322;28;19926;-80
2022/02/21 03:42:25;;;;;;;;;;;;;;;;;;4955914;28;20009;-80
2022/02/21 03:44:52;;;;;;;;;;;;;;;;;;4952963;28;19975;-81
2022/02/21 03:47:19;;;;;;;;;;;;;;;;;;4954468;28;19930;-81
2022/02/21 03:49:46;;;;;;;;;;;;;;;;;;4956747;28;19934;-80
2022/02/21 03:52:13;;;;;;;;;;;;;;;;;;4956344;28;19930;-81
2022/02/21 03:54:40;;;;;;;;;;;;;;;;;;4954072;28;20342;-81
2022/02/21 03:57:07;;;;;;;;;;;;;;;;;;4956319;28;20755;-81
2022/02/21 03:59:34;;;;;;;;;;;;;;;;;;4955525;28;19930;-82
2022/02/21 04:02:01;;;;;;;;;;;;;;;;;;4954755;28;19931;-81
2022/02/21 04:04:28;;;;;;;;;;;;;;;;;;4959455;28;19935;-82
2022/02/21 04:06:56;;;;;;;;;;;;;;;;;;4955147;28;19927;-81
2022/02/21 04:09:22;;;;;;;;;;;;;;;;;;4954019;28;19934;-81
2022/02/21 04:11:50;;;;;;;;;;;;;;;;;;4954302;28;19930;-81
2022/02/21 04:14:17;;;;;;;;;;;;;;;;;;4956355;28;19933;-81
2022/02/21 04:16:44;;;;;;;;;;;;;;;;;;4953751;28;19966;-81
2022/02/21 04:19:13;;;;;;;;;;;;;;;;;;4957629;28;19926;-81
2022/02/21 04:21:40;;;;;;;;;;;;;;;;;;4958197;28;19927;-81
2022/02/21 04:24:07;;;;;;;;;;;;;;;;;;4957227;28;20306;-82
2022/02/21 04:26:34;;;;;;;;;;;;;;;;;;4957278;28;19977;-81
2022/02/21 04:29:01;;;;;;;;;;;;;;;;;;4955169;28;20438;-81
2022/02/21 04:31:28;;;;;;;;;;;;;;;;;;4957275;28;19927;-80
2022/02/21 04:33:55;;;;;;;;;;;;;;;;;;4955145;28;19954;-80
2022/02/21 04:36:22;;;;;;;;;;;;;;;;;;4956611;28;20298;-80
2022/02/21 04:38:49;;;;;;;;;;;;;;;;;;4956414;28;19973;-79
2022/02/21 04:41:16;;;;;;;;;;;;;;;;;;4961169;28;19927;-80
2022/02/21 04:43:43;;;;;;;;;;;;;;;;;;4957591;28;20343;-80
2022/02/21 04:46:10;;;;;;;;;;;;;;;;;;4956210;28;19933;-80
2022/02/21 04:48:37;;;;;;;;;;;;;;;;;;4963398;28;20464;-80
2022/02/21 04:51:04;;;;;;;;;;;;;;;;;;4955884;28;20469;-80
2022/02/21 04:53:31;;;;;;;;;;;;;;;;;;4956953;28;19941;-80
2022/02/21 04:55:58;;;;;;;;;;;;;;;;;;4956485;28;20030;-80
2022/02/21 04:58:25;;;;;;;;;;;;;;;;;;4958341;28;19927;-81
2022/02/21 05:00:52;;;;;;;;;;;;;;;;;;4960388;28;20514;-79
2022/02/21 05:03:19;;;;;;;;;;;;;;;;;;4953802;28;19969;-80
2022/02/21 05:05:47;;;;;;;;;;;;;;;;;;4956957;28;20012;-80
2022/02/21 05:08:14;;;;;;;;;;;;;;;;;;4959324;28;20275;-80
2022/02/21 05:10:41;;;;;;;;;;;;;;;;;;4960086;28;20524;-80
2022/02/21 05:13:08;;;;;;;;;;;;;;;;;;4957332;28;19927;-80
2022/02/21 05:15:35;;;;;;;;;;;;;;;;;;4956310;28;19926;-81
2022/02/21 05:18:03;;;;;;;;;;;;;;;;;;4955640;28;19927;-80
2022/02/21 05:20:30;;;;;;;;;;;;;;;;;;4960401;28;19957;-80
2022/02/21 05:22:57;;;;;;;;;;;;;;;;;;4961189;28;19962;-80
2022/02/21 05:25:24;;;;;;;;;;;;;;;;;;4960378;28;19965;-80
2022/02/21 05:27:51;;;;;;;;;;;;;;;;;;4967673;28;19953;-80
2022/02/21 05:30:18;;;;;;;;;;;;;;;;;;4960509;28;19991;-81
2022/02/21 05:32:45;;;;;;;;;;;;;;;;;;4960773;28;19927;-81
2022/02/21 05:35:12;;;;;;;;;;;;;;;;;;4952896;28;19937;-81
2022/02/21 05:37:39;;;;;;;;;;;;;;;;;;4985366;23;19926;-79
2022/02/21 05:40:06;;;;;;;;;;;;;;;;;;4969037;28;20037;-78
2022/02/21 05:42:33;;;;;;;;;;;;;;;;;;4971370;28;19933;-78
2022/02/21 05:45:00;;;;;;;;;;;;;;;;;;4968703;28;19933;-77
2022/02/21 05:47:27;;;;;;;;;;;;;;;;;;4964659;28;19926;-76
2022/02/21 05:49:55;;;;;;;;;;;;;;;;;;4971748;28;19930;-78
2022/02/21 05:52:22;;;;;;;;;;;;;;;;;;4970454;28;19930;-78
2022/02/21 05:54:50;;;;;;;;;;;;;;;;;;4960672;28;19929;-78
2022/02/21 05:57:17;;;;;;;;;;;;;;;;;;4966177;28;19926;-80
2022/02/21 05:59:44;;;;;;;;;;;;;;;;;;4971785;28;19934;-78
2022/02/21 06:02:11;;;;;;;;;;;;;;;;;;4972715;28;19926;-79
2022/02/21 06:04:38;;;;;;;;;;;;;;;;;;4969713;28;20436;-79
2022/02/21 06:07:05;;;;;;;;;;;;;;;;;;4969430;28;19962;-77
2022/02/21 06:09:32;;;;;;;;;;;;;;;;;;4970929;28;19927;-79
2022/02/21 06:12:00;;;;;;;;;;;;;;;;;;4971401;28;19930;-79
2022/02/21 06:14:27;;;;;;;;;;;;;;;;;;4973162;28;19926;-78
2022/02/21 06:16:54;;;;;;;;;;;;;;;;;;4966425;28;19934;-79
2022/02/21 06:19:21;;;;;;;;;;;;;;;;;;4970299;28;20460;-79
2022/02/21 06:21:48;;;;;;;;;;;;;;;;;;4969896;28;19937;-79
2022/02/21 06:24:15;;;;;;;;;;;;;;;;;;4970642;28;19932;-79
2022/02/21 06:26:42;;;;;;;;;;;;;;;;;;4963529;28;19926;-77
2022/02/21 06:29:09;;;;;;;;;;;;;;;;;;4973135;28;19930;-80
2022/02/21 06:31:36;;;;;;;;;;;;;;;;;;4969183;28;19941;-77
2022/02/21 06:34:03;;;;;;;;;;;;;;;;;;4968517;28;19926;-79
2022/02/21 06:39:11;;;;;;;;;;;;;;;;;;4964284;28;19934;-77
2022/02/21 06:41:38;;;;;;;;;;;;;;;;;;4969441;28;19933;-78
2022/02/21 06:44:05;;;;;;;;;;;;;;;;;;4965237;28;20409;-79
2022/02/21 06:46:32;;;;;;;;;;;;;;;;;;4965708;28;19941;-79
2022/02/21 06:48:59;;;;;;;;;;;;;;;;;;4971174;28;19933;-78
2022/02/21 06:51:26;;;;;;;;;;;;;;;;;;4974968;28;19932;-76
2022/02/21 06:53:53;;;;;;;;;;;;;;;;;;4969519;28;19992;-77
2022/02/21 06:56:20;;;;;;;;;;;;;;;;;;4965005;28;19933;-76
2022/02/21 06:58:47;;;;;;;;;;;;;;;;;;4973484;28;19947;-76
2022/02/21 07:01:14;;;;;;;;;;;;;;;;;;4970180;28;19934;-78
2022/02/21 07:03:41;;;;;;;;;;;;;;;;;;4969287;28;19927;-77
2022/02/21 07:06:08;;;;;;;;;;;;;;;;;;4964638;28;20401;-76
2022/02/21 07:08:35;;;;;;;;;;;;;;;;;;4972709;28;19937;-78
2022/02/21 07:11:02;;;;;;;;;;;;;;;;;;4976509;28;19927;-78
2022/02/21 07:13:30;;;;;;;;;;;;;;;;;;4978359;28;19965;-79
2022/02/21 07:15:57;;;;;;;;;;;;;;;;;;4978626;28;19926;-78
2022/02/21 07:18:24;;;;;;;;;;;;;;;;;;4971577;28;19926;-79
2022/02/21 07:20:51;;;;;;;;;;;;;;;;;;4974199;28;20274;-79
2022/02/21 07:23:18;;;;;;;;;;;;;;;;;;4961880;28;19981;-76
2022/02/21 07:25:45;;;;;;;;;;;;;;;;;;4963187;28;20424;-77
2022/02/21 07:28:15;;;;;;;;;;;;;;;;;;4964678;28;20078;-76
2022/02/21 07:30:42;;;;;;;;;;;;;;;;;;4960003;28;19934;-78
2022/02/21 07:33:09;;;;;;;;;;;;;;;;;;4960491;28;19926;-77
2022/02/21 07:35:36;;;;;;;;;;;;;;;;;;4955419;28;20028;-76
2022/02/21 07:38:04;;;;;;;;;;;;;;;;;;4963956;28;19931;-80
2022/02/21 07:40:31;;;;;;;;;;;;;;;;;;4976253;28;19926;-78
2022/02/21 07:42:58;;;;;;;;;;;;;;;;;;4975769;28;20305;-77
2022/02/21 07:45:25;;;;;;;;;;;;;;;;;;4968130;28;19937;-76
2022/02/21 07:47:52;;;;;;;;;;;;;;;;;;4971718;28;19926;-78
2022/02/21 07:50:19;;;;;;;;;;;;;;;;;;4974946;28;19949;-78
2022/02/21 07:52:48;;;;;;;;;;;;;;;;;;4960838;28;20021;-77
2022/02/21 07:55:15;;;;;;;;;;;;;;;;;;4971364;28;19930;-79
2022/02/21 07:57:42;;;;;;;;;;;;;;;;;;4974430;28;19933;-77
2022/02/21 08:00:10;;;;;;;;;;;;;;;;;;4977175;28;19933;-78
2022/02/21 08:02:36;;;;;;;;;;;;;;;;;;4972512;28;20353;-75
2022/02/21 08:05:03;;;;;;;;;;;;;;;;;;4969359;28;19926;-77
2022/02/21 08:07:30;;;;;;;;;;;;;;;;;;4974530;28;19945;-78
2022/02/21 08:09:57;;;;;;;;;;;;;;;;;;4970954;28;19934;-78
2022/02/21 08:12:24;;;;;;;;;;;;;;;;;;4972166;28;19930;-79
2022/02/21 08:14:51;;;;;;;;;;;;;;;;;;4974187;28;19948;-78
2022/02/21 08:17:18;;;;;;;;;;;;;;;;;;4974496;28;20325;-78
2022/02/21 08:19:45;;;;;;;;;;;;;;;;;;4971782;28;19934;-74
2022/02/21 08:22:12;;;;;;;;;;;;;;;;;;4974983;28;19941;-77
2022/02/21 08:24:39;;;;;;;;;;;;;;;;;;4972526;28;20325;-76
2022/02/21 08:27:06;;;;;;;;;;;;;;;;;;4966944;28;19930;-77
2022/02/21 08:29:33;;;;;;;;;;;;;;;;;;4957878;28;20378;-77
2022/02/21 08:32:00;;;;;;;;;;;;;;;;;;4957342;28;19926;-77
2022/02/21 08:34:27;;;;;;;;;;;;;;;;;;4964601;28;19932;-78
2022/02/21 08:36:55;;;;;;;;;;;;;;;;;;4963516;28;19933;-78
2022/02/21 08:39:22;;;;;;;;;;;;;;;;;;4968862;28;19926;-76
2022/02/21 08:41:49;;;;;;;;;;;;;;;;;;4964104;28;19926;-78
2022/02/21 08:44:16;;;;;;;;;;;;;;;;;;4971267;28;19934;-77
2022/02/21 08:46:44;;;;;;;;;;;;;;;;;;4972407;28;19926;-78
2022/02/21 08:49:11;;;;;;;;;;;;;;;;;;4970688;28;19957;-78
2022/02/21 08:51:38;;;;;;;;;;;;;;;;;;4966045;28;19930;-77
2022/02/21 08:54:05;;;;;;;;;;;;;;;;;;4956164;28;19998;-76
2022/02/21 08:56:32;;;;;;;;;;;;;;;;;;4965012;28;20021;-78
2022/02/21 08:58:59;;;;;;;;;;;;;;;;;;4972282;28;20405;-77
2022/02/21 09:01:26;;;;;;;;;;;;;;;;;;4969943;28;19940;-76
2022/02/21 09:03:53;;;;;;;;;;;;;;;;;;4959198;28;20421;-80
2022/02/21 09:06:20;;;;;;;;;;;;;;;;;;4972471;28;19966;-77
2022/02/21 09:08:47;;;;;;;;;;;;;;;;;;4973084;28;19969;-77
2022/02/21 09:11:14;;;;;;;;;;;;;;;;;;4972336;28;20397;-79
2022/02/21 09:13:41;;;;;;;;;;;;;;;;;;4969810;28;20440;-79
2022/02/21 09:16:08;;;;;;;;;;;;;;;;;;4969791;28;19932;-79
2022/02/21 09:18:35;;;;;;;;;;;;;;;;;;4971263;28;19934;-79
2022/02/21 09:21:02;;;;;;;;;;;;;;;;;;4973132;28;20396;-78
2022/02/21 09:23:29;;;;;;;;;;;;;;;;;;4968804;28;20600;-79
2022/02/21 09:25:56;;;;;;;;;;;;;;;;;;4970586;28;19934;-78
2022/02/21 09:28:23;;;;;;;;;;;;;;;;;;4974894;28;20012;-78
2022/02/21 09:30:53;;;;;;;;;;;;;;;;;;4963900;28;19930;-77
2022/02/21 09:33:20;;;;;;;;;;;;;;;;;;4965993;28;19931;-77
2022/02/21 09:35:46;;;;;;;;;;;;;;;;;;4962775;28;19930;-80
2022/02/21 09:38:13;;;;;;;;;;;;;;;;;;4969208;28;19926;-78
2022/02/21 09:40:41;;;;;;;;;;;;;;;;;;4969541;28;19932;-77
2022/02/21 09:43:08;;;;;;;;;;;;;;;;;;4968083;28;20012;-77
2022/02/21 09:45:35;;;;;;;;;;;;;;;;;;4972405;28;19926;-77
2022/02/21 09:48:02;;;;;;;;;;;;;;;;;;4967311;28;19930;-75
2022/02/21 09:50:29;;;;;;;;;;;;;;;;;;4967731;28;19933;-77
2022/02/21 09:53:01;;;;;;;;;;;;;;;;;;4968765;28;19930;-78
2022/02/21 09:55:28;;;;;;;;;;;;;;;;;;4970987;28;19927;-77
2022/02/21 09:57:55;;;;;;;;;;;;;;;;;;4967742;28;19926;-77
2022/02/21 10:00:22;;;;;;;;;;;;;;;;;;4966976;28;19930;-78
2022/02/21 10:02:49;;;;;;;;;;;;;;;;;;4969352;28;19932;-77
2022/02/21 10:05:16;;;;;;;;;;;;;;;;;;4968762;28;20377;-78
2022/02/21 10:07:43;;;;;;;;;;;;;;;;;;4970538;28;19926;-76
2022/02/21 10:10:10;;;;;;;;;;;;;;;;;;4971678;28;19972;-78
2022/02/21 10:12:37;;;;;;;;;;;;;;;;;;4968671;28;19933;-75
2022/02/21 10:15:04;;;;;;;;;;;;;;;;;;4963276;28;20005;-77
2022/02/21 10:17:31;;;;;;;;;;;;;;;;;;4970401;28;19926;-78
2022/02/21 10:19:58;;;;;;;;;;;;;;;;;;4968037;28;20438;-77
2022/02/21 10:22:27;;;;;;;;;;;;;;;;;;4970433;28;20012;-77
2022/02/21 10:24:54;;;;;;;;;;;;;;;;;;4973238;28;20024;-77
2022/02/21 10:27:21;;;;;;;;;;;;;;;;;;4968354;28;20444;-78
2022/02/21 10:29:48;;;;;;;;;;;;;;;;;;4969082;28;19973;-77
2022/02/21 10:32:15;;;;;;;;;;;;;;;;;;4971508;28;20008;-78
2022/02/21 10:34:45;;;;;;;;;;;;;;;;;;4968970;28;19926;-77
2022/02/21 10:37:12;;;;;;;;;;;;;;;;;;4968448;28;19981;-76
2022/02/21 10:39:39;;;;;;;;;;;;;;;;;;4969495;28;19927;-78
2022/02/21 10:42:08;;;;;;;;;;;;;;;;;;4968939;28;20412;-78
2022/02/21 10:44:35;;;;;;;;;;;;;;;;;;4970088;28;19933;-77
2022/02/21 10:47:02;;;;;;;;;;;;;;;;;;4969012;28;19934;-78
2022/02/21 10:49:30;;;;;;;;;;;;;;;;;;4974639;28;19926;-77
2022/02/21 10:51:57;;;;;;;;;;;;;;;;;;4969548;28;19926;-77
2022/02/21 10:54:24;;;;;;;;;;;;;;;;;;4969925;28;19926;-78
2022/02/21 10:56:51;;;;;;;;;;;;;;;;;;4975818;28;19926;-77
2022/02/21 10:59:18;;;;;;;;;;;;;;;;;;4976440;28;19930;-79
2022/02/21 11:01:45;;;;;;;;;;;;;;;;;;4973197;28;20502;-75
2022/02/21 11:04:12;;;;;;;;;;;;;;;;;;4972619;28;19933;-78
2022/02/21 11:06:39;;;;;;;;;;;;;;;;;;4973579;28;19926;-79
2022/02/21 11:09:06;;;;;;;;;;;;;;;;;;4974642;28;19984;-77
2022/02/21 11:11:33;;;;;;;;;;;;;;;;;;4973932;28;19926;-78
2022/02/21 11:14:00;;;;;;;;;;;;;;;;;;4975477;28;20360;-78
2022/02/21 11:16:29;;;;;;;;;;;;;;;;;;4976894;28;19936;-76
2022/02/21 11:18:56;;;;;;;;;;;;;;;;;;4976700;28;19965;-78
2022/02/21 11:21:23;;;;;;;;;;;;;;;;;;4973609;28;19926;-79
2022/02/21 11:23:50;;;;;;;;;;;;;;;;;;4971722;28;20029;-78
2022/02/21 11:26:20;;;;;;;;;;;;;;;;;;4974046;28;20328;-77
2022/02/21 11:28:47;;;;;;;;;;;;;;;;;;4976667;28;19935;-77
2022/02/21 11:31:14;;;;;;;;;;;;;;;;;;4977633;28;19964;-78
2022/02/21 11:33:41;;;;;;;;;;;;;;;;;;4979493;28;19926;-77
2022/02/21 11:36:08;;;;;;;;;;;;;;;;;;4999467;23;19930;-69
2022/02/21 11:38:35;;;;;;;;;;;;;;;;;;4983055;28;19933;-68
2022/02/21 11:41:02;;;;;;;;;;;;;;;;;;4983981;28;19930;-69
2022/02/21 11:43:29;;;;;;;;;;;;;;;;;;4987811;28;20066;-70
2022/02/21 11:45:56;;;;;;;;;;;;;;;;;;4985370;28;19933;-69
2022/02/21 11:48:23;;;;;;;;;;;;;;;;;;4986685;28;19926;-68
2022/02/21 11:50:50;;;;;;;;;;;;;;;;;;4987272;28;19930;-71
2022/02/21 11:53:17;;;;;;;;;;;;;;;;;;4989649;28;20020;-70
2022/02/21 11:55:45;;;;;;;;;;;;;;;;;;4984211;28;20021;-70
2022/02/21 11:58:11;;;;;;;;;;;;;;;;;;4986790;28;19934;-71
2022/02/21 12:00:39;;;;;;;;;;;;;;;;;;4988310;28;19949;-74
2022/02/21 12:03:06;;;;;;;;;;;;;;;;;;4981101;28;19980;-69
2022/02/21 12:05:35;;;;;;;;;;;;;;;;;;4987337;28;19932;-69
2022/02/21 12:08:02;;;;;;;;;;;;;;;;;;4981665;28;19930;-70
2022/02/21 12:10:29;;;;;;;;;;;;;;;;;;4983772;28;19941;-70
2022/02/21 12:12:57;;;;;;;;;;;;;;;;;;4985702;28;19934;-70
2022/02/21 12:15:24;;;;;;;;;;;;;;;;;;4985512;28;19926;-70
2022/02/21 12:17:51;;;;;;;;;;;;;;;;;;4988825;28;20072;-69
2022/02/21 12:20:18;;;;;;;;;;;;;;;;;;4991307;28;19926;-69
2022/02/21 12:22:45;;;;;;;;;;;;;;;;;;4991246;28;19926;-70
2022/02/21 12:25:13;;;;;;;;;;;;;;;;;;4984250;28;20017;-69
2022/02/21 12:27:40;;;;;;;;;;;;;;;;;;4987686;28;20013;-69
2022/02/21 12:30:07;;;;;;;;;;;;;;;;;;4987976;28;20052;-71
2022/02/21 12:32:34;;;;;;;;;;;;;;;;;;4985461;28;19965;-69
2022/02/21 12:35:01;;;;;;;;;;;;;;;;;;4987529;28;20028;-70
2022/02/21 12:37:28;;;;;;;;;;;;;;;;;;4981671;28;19936;-69
2022/02/21 12:39:55;;;;;;;;;;;;;;;;;;4975863;28;19926;-70
2022/02/21 12:42:24;;;;;;;;;;;;;;;;;;4983639;28;19945;-70
2022/02/21 12:44:51;;;;;;;;;;;;;;;;;;4978180;28;19984;-69
2022/02/21 12:47:18;;;;;;;;;;;;;;;;;;4986498;28;21512;-70
2022/02/21 12:49:45;;;;;;;;;;;;;;;;;;4988933;28;19932;-70
2022/02/21 12:52:12;;;;;;;;;;;;;;;;;;4979946;28;20045;-76
2022/02/21 12:54:39;;;;;;;;;;;;;;;;;;4981797;28;19937;-70
2022/02/21 12:57:06;;;;;;;;;;;;;;;;;;4976921;28;19930;-68
2022/02/21 12:59:33;;;;;;;;;;;;;;;;;;4986192;28;19936;-70
2022/02/21 13:02:00;;;;;;;;;;;;;;;;;;4987953;28;20400;-69
2022/02/21 13:04:27;;;;;;;;;;;;;;;;;;4991677;28;20399;-71
2022/02/21 13:06:56;;;;;;;;;;;;;;;;;;4981950;28;19930;-71
2022/02/21 13:09:23;;;;;;;;;;;;;;;;;;4985929;28;19926;-71
2022/02/21 13:11:54;;;;;;;;;;;;;;;;;;4985241;28;21746;-70
2022/02/21 13:14:21;;;;;;;;;;;;;;;;;;4981512;28;19937;-69
2022/02/21 13:16:48;;;;;;;;;;;;;;;;;;4984524;28;19930;-70
2022/02/21 13:19:15;;;;;;;;;;;;;;;;;;4988663;28;20433;-70
2022/02/21 13:21:42;;;;;;;;;;;;;;;;;;4989612;28;20372;-70
2022/02/21 13:24:09;;;;;;;;;;;;;;;;;;4983640;28;19953;-68
2022/02/21 13:26:36;;;;;;;;;;;;;;;;;;4981677;28;19932;-70
2022/02/21 13:29:03;;;;;;;;;;;;;;;;;;4982914;28;20448;-72
2022/02/21 13:31:30;;;;;;;;;;;;;;;;;;4983247;28;19965;-70
2022/02/21 13:33:57;;;;;;;;;;;;;;;;;;4985991;28;19933;-69
2022/02/21 13:36:24;;;;;;;;;;;;;;;;;;4979828;28;19940;-69
2022/02/21 13:38:51;;;;;;;;;;;;;;;;;;4983143;28;19926;-68
2022/02/21 13:41:18;;;;;;;;;;;;;;;;;;4982789;28;19926;-70
2022/02/21 13:43:47;;;;;;;;;;;;;;;;;;4982878;28;19925;-69
2022/02/21 13:46:14;;;;;;;;;;;;;;;;;;4974587;28;20165;-71
2022/02/21 13:48:41;;;;;;;;;;;;;;;;;;4978243;28;20052;-68
2022/02/21 13:51:08;;;;;;;;;;;;;;;;;;4974321;28;20016;-68
2022/02/21 13:53:37;;;;;;;;;;;;;;;;;;4982038;28;20013;-70
2022/02/21 13:56:04;;;;;;;;;;;;;;;;;;4984086;28;19938;-71
2022/02/21 13:58:32;;;;;;;;;;;;;;;;;;4986697;28;19926;-71
2022/02/21 14:00:58;;;;;;;;;;;;;;;;;;4984728;28;19930;-71
2022/02/21 14:03:25;;;;;;;;;;;;;;;;;;4982695;28;20408;-70
2022/02/21 14:05:54;;;;;;;;;;;;;;;;;;4978226;28;20275;-70
2022/02/21 14:08:21;;;;;;;;;;;;;;;;;;4985012;28;19965;-70
2022/02/21 14:10:48;;;;;;;;;;;;;;;;;;4982198;28;19976;-70
2022/02/21 14:13:15;;;;;;;;;;;;;;;;;;4983486;28;19933;-69
2022/02/21 14:15:42;;;;;;;;;;;;;;;;;;4982597;28;20310;-70
2022/02/21 14:18:09;;;;;;;;;;;;;;;;;;4981790;28;20381;-70
2022/02/21 14:20:36;;;;;;;;;;;;;;;;;;4980218;28;20385;-69
2022/02/21 14:23:03;;;;;;;;;;;;;;;;;;4981887;28;20393;-70
2022/02/21 14:25:30;;;;;;;;;;;;;;;;;;4980074;28;19934;-71
2022/02/21 14:27:57;;;;;;;;;;;;;;;;;;4981676;28;19930;-69
2022/02/21 14:30:27;;;;;;;;;;;;;;;;;;4980700;28;19930;-70
2022/02/21 14:32:54;;;;;;;;;;;;;;;;;;4988067;28;19930;-71
2022/02/21 14:35:21;;;;;;;;;;;;;;;;;;4979383;28;19945;-69
2022/02/21 14:37:48;;;;;;;;;;;;;;;;;;4983216;28;19973;-71
2022/02/21 14:40:15;;;;;;;;;;;;;;;;;;4977474;28;20377;-68
2022/02/21 14:42:42;;;;;;;;;;;;;;;;;;4986673;28;20021;-68
2022/02/21 14:45:08;;;;;;;;;;;;;;;;;;4979689;28;19937;-71
2022/02/21 14:47:35;;;;;;;;;;;;;;;;;;4977150;28;19936;-69
2022/02/21 14:50:02;;;;;;;;;;;;;;;;;;4979826;28;19934;-68
2022/02/21 14:52:29;;;;;;;;;;;;;;;;;;4983061;28;19948;-69
2022/02/21 14:54:56;;;;;;;;;;;;;;;;;;4984283;28;19926;-69
2022/02/21 14:57:23;;;;;;;;;;;;;;;;;;4975874;28;19952;-68
2022/02/21 14:59:50;;;;;;;;;;;;;;;;;;4981359;28;19930;-70
2022/02/21 15:02:17;;;;;;;;;;;;;;;;;;4979167;28;19926;-70
2022/02/21 15:04:44;;;;;;;;;;;;;;;;;;4983684;28;20013;-70
2022/02/21 15:07:11;;;;;;;;;;;;;;;;;;4978118;28;19965;-70
2022/02/21 15:09:38;;;;;;;;;;;;;;;;;;4976916;28;20415;-72
2022/02/21 15:12:05;;;;;;;;;;;;;;;;;;4979779;28;19940;-71
2022/02/21 15:14:33;;;;;;;;;;;;;;;;;;4984589;28;19926;-71
2022/02/21 15:17:00;;;;;;;;;;;;;;;;;;4982486;28;19948;-71
2022/02/21 15:19:27;;;;;;;;;;;;;;;;;;4979065;28;19932;-70
2022/02/21 15:21:54;;;;;;;;;;;;;;;;;;4983603;28;19933;-70
2022/02/21 15:24:21;;;;;;;;;;;;;;;;;;4983510;28;20016;-70
2022/02/21 15:26:48;;;;;;;;;;;;;;;;;;4976992;28;19969;-71
2022/02/21 15:29:15;;;;;;;;;;;;;;;;;;4983137;28;20385;-70
2022/02/21 15:31:42;;;;;;;;;;;;;;;;;;4981024;28;19934;-71
2022/02/21 15:34:09;;;;;;;;;;;;;;;;;;4977415;28;19926;-70
2022/02/21 15:36:37;;;;;;;;;;;;;;;;;;4976942;28;20656;-71
2022/02/21 15:39:04;;;;;;;;;;;;;;;;;;4980815;28;19934;-71
2022/02/21 15:41:31;;;;;;;;;;;;;;;;;;4975322;28;19929;-71
2022/02/21 15:43:58;;;;;;;;;;;;;;;;;;4985421;28;19980;-70
2022/02/21 15:46:26;;;;;;;;;;;;;;;;;;4983294;28;19933;-71
2022/02/21 15:48:53;;;;;;;;;;;;;;;;;;4977808;28;20323;-71
2022/02/21 15:51:19;;;;;;;;;;;;;;;;;;4983872;28;20412;-71
2022/02/21 15:53:46;;;;;;;;;;;;;;;;;;4982654;28;20399;-72
2022/02/21 15:56:13;;;;;;;;;;;;;;;;;;4980679;28;19927;-74
2022/02/21 15:58:40;;;;;;;;;;;;;;;;;;4979952;28;19933;-71
2022/02/21 16:01:07;;;;;;;;;;;;;;;;;;4982781;28;19957;-71
2022/02/21 16:03:35;;;;;;;;;;;;;;;;;;4984649;28;19930;-70
2022/02/21 16:06:03;;;;;;;;;;;;;;;;;;4980044;28;19941;-70
2022/02/21 16:08:30;;;;;;;;;;;;;;;;;;4980893;28;19972;-70
2022/02/21 16:10:57;;;;;;;;;;;;;;;;;;4978359;28;19941;-70
2022/02/21 16:13:24;;;;;;;;;;;;;;;;;;4978493;28;19933;-70
2022/02/21 16:15:51;;;;;;;;;;;;;;;;;;4979536;28;19936;-70
2022/02/21 16:18:18;;;;;;;;;;;;;;;;;;4982786;28;19976;-68
2022/02/21 16:20:45;;;;;;;;;;;;;;;;;;4986000;28;20043;-69
2022/02/21 16:23:12;;;;;;;;;;;;;;;;;;4988307;28;19930;-69
2022/02/21 16:25:39;;;;;;;;;;;;;;;;;;4982847;28;19985;-70
2022/02/21 16:28:07;;;;;;;;;;;;;;;;;;4988012;28;19926;-70
2022/02/21 16:30:33;;;;;;;;;;;;;;;;;;4988406;28;19932;-72
2022/02/21 16:33:00;;;;;;;;;;;;;;;;;;4990439;28;19941;-71
2022/02/21 16:35:27;;;;;;;;;;;;;;;;;;4987893;28;19926;-71
2022/02/21 16:37:54;;;;;;;;;;;;;;;;;;4992131;28;20008;-70
2022/02/21 16:40:22;;;;;;;;;;;;;;;;;;4991524;28;20021;-72
2022/02/21 16:42:49;;;;;;;;;;;;;;;;;;4993518;28;19926;-70
2022/02/21 16:45:16;;;;;;;;;;;;;;;;;;4987603;28;19925;-70
2022/02/21 16:47:43;;;;;;;;;;;;;;;;;;4988293;28;19941;-68